createdAt,value
2023-05-15T00:00:01.823Z,13.62
2023-05-15T00:05:00.907Z,13.62
2023-05-15T00:10:02.683Z,13.62
2023-05-15T00:15:00.706Z,13.62
2023-05-15T00:20:02.205Z,13.41
2023-05-15T00:25:03.817Z,13.41
2023-05-15T00:30:01.202Z,13.41
2023-05-15T00:35:00.824Z,13.41
2023-05-15T00:40:00.942Z,13.41
2023-05-15T00:45:01.082Z,13.25
2023-05-15T00:50:02.266Z,13.94
2023-05-15T00:55:00.878Z,13.94
2023-05-15T01:00:01.741Z,13.94
2023-05-15T01:05:01.272Z,13.94
2023-05-15T01:10:01.037Z,13.9
2023-05-15T01:15:03.747Z,13.9
2023-05-15T01:20:00.801Z,13.9
2023-05-15T01:25:10.575Z,13.39
2023-05-15T01:30:01.406Z,13.39
2023-05-15T01:35:00.929Z,13.39
2023-05-15T01:40:00.790Z,13.39
2023-05-15T01:45:01.611Z,12.99
2023-05-15T01:50:01.181Z,13.14
2023-05-15T01:55:02.731Z,13.14
2023-05-15T02:00:00.763Z,13.14
2023-05-15T02:05:00.866Z,13.14
2023-05-15T02:10:02.231Z,13.14
2023-05-15T02:15:00.896Z,13.14
2023-05-15T02:20:01.239Z,13.14
2023-05-15T02:25:05.220Z,13.14
2023-05-15T02:30:00.763Z,13.14
2023-05-15T02:35:01.396Z,13.14
2023-05-15T02:40:02.499Z,12.86
2023-05-15T02:45:00.733Z,12.86
2023-05-15T02:50:00.910Z,12.93
2023-05-15T02:55:01.045Z,12.93
2023-05-15T03:00:00.751Z,12.93
2023-05-15T03:05:00.832Z,12.93
2023-05-15T03:10:01.151Z,12.93
2023-05-15T03:15:00.703Z,12.93
2023-05-15T03:20:01.872Z,12.93
2023-05-15T03:25:01.434Z,12.93
2023-05-15T03:30:00.999Z,12.93
2023-05-15T03:35:00.707Z,12.61
2023-05-15T03:40:00.777Z,12.61
2023-05-15T03:45:00.837Z,12.61
2023-05-15T03:50:01.307Z,12.61
2023-05-15T03:55:00.815Z,12.61
2023-05-15T04:00:00.848Z,12.61
2023-05-15T04:05:01.087Z,12.61
2023-05-15T04:10:00.725Z,12.61
2023-05-15T04:15:01.101Z,12.61
2023-05-15T04:20:00.682Z,12.61
2023-05-15T04:25:01.766Z,12.61
2023-05-15T04:30:00.774Z,12.44
2023-05-15T04:35:00.735Z,12.44
2023-05-15T04:40:00.820Z,12.44
2023-05-15T04:45:02.396Z,12.44
2023-05-15T04:50:00.717Z,13.12
2023-05-15T04:55:00.947Z,13.12
2023-05-15T05:00:00.751Z,13.12
2023-05-15T05:05:01.768Z,13.12
2023-05-15T05:10:00.781Z,13.12
2023-05-15T05:15:00.823Z,13.12
2023-05-15T05:20:00.803Z,13.12
2023-05-15T05:25:02.905Z,12.86
2023-05-15T05:30:00.728Z,12.86
2023-05-15T05:35:02.614Z,13.04
2023-05-15T05:40:00.813Z,13.04
2023-05-15T05:45:00.830Z,13.04
2023-05-15T05:50:00.763Z,13.04
2023-05-15T05:55:00.933Z,13.04
2023-05-15T06:00:00.701Z,13.04
2023-05-15T06:05:01.022Z,13.56
2023-05-15T06:10:00.728Z,13.56
2023-05-15T06:15:00.728Z,13.7
2023-05-15T06:20:00.764Z,13.7
2023-05-15T06:25:02.375Z,13.7
2023-05-15T06:30:00.697Z,13.7
2023-05-15T06:35:00.823Z,13.7
2023-05-15T06:40:01.063Z,13.5
2023-05-15T06:45:00.854Z,13.5
2023-05-15T06:50:00.887Z,13.5
2023-05-15T06:55:01.352Z,13.5
2023-05-15T07:00:01.751Z,13.5
2023-05-15T07:05:00.748Z,13.5
2023-05-15T07:10:00.906Z,13.62
2023-05-15T07:15:00.950Z,13.62
2023-05-15T07:20:00.745Z,13.62
2023-05-15T07:25:03.991Z,13.62
2023-05-15T07:30:00.708Z,13.7
2023-05-15T07:35:00.787Z,13.7
2023-05-15T07:40:00.819Z,13.7
2023-05-15T07:45:00.777Z,13.7
2023-05-15T07:50:00.709Z,14.21
2023-05-15T07:55:03.076Z,14.21
2023-05-15T08:00:00.739Z,14.21
2023-05-15T08:05:00.847Z,14.83
2023-05-15T08:10:00.907Z,14.83
2023-05-15T08:15:00.775Z,14.83
2023-05-15T08:20:00.748Z,14.83
2023-05-15T08:25:03.874Z,14.83
2023-05-15T08:30:02.338Z,14.83
2023-05-15T08:35:01.253Z,14.83
2023-05-15T08:40:00.883Z,15.24
2023-05-15T08:45:00.814Z,15.24
2023-05-15T08:50:02.463Z,15.24
2023-05-15T08:55:03.518Z,15.77
2023-05-15T09:00:01.278Z,15.87
2023-05-15T09:05:00.817Z,15.87
2023-05-15T09:10:00.771Z,16.31
2023-05-15T09:15:00.890Z,16.31
2023-05-15T09:20:00.802Z,16.31
2023-05-15T09:25:01.972Z,16.83
2023-05-15T09:30:00.682Z,16.83
2023-05-15T09:35:01.051Z,16.83
2023-05-15T09:40:00.761Z,16.83
2023-05-15T09:45:00.793Z,16.83
2023-05-15T09:50:04.712Z,16.83
2023-05-15T09:55:01.086Z,16.79
2023-05-15T10:00:01.619Z,16.79
2023-05-15T10:05:01.830Z,16.79
2023-05-15T10:10:01.528Z,16.79
2023-05-15T10:15:03.371Z,16.79
2023-05-15T10:20:00.875Z,16.79
2023-05-15T10:25:03.042Z,16.79
2023-05-15T10:30:00.805Z,16.79
2023-05-15T10:35:01.505Z,16.79
2023-05-15T10:40:00.757Z,16.79
2023-05-15T10:45:00.862Z,16.79
2023-05-15T10:50:01.209Z,16.54
2023-05-15T10:55:01.470Z,17.02
2023-05-15T11:00:00.695Z,17.02
2023-05-15T11:05:02.147Z,17.02
2023-05-15T11:10:04.350Z,17.31
2023-05-15T11:15:00.708Z,17.31
2023-05-15T11:20:00.853Z,16.82
2023-05-15T11:25:04.440Z,16.82
2023-05-15T11:30:01.329Z,16.82
2023-05-15T11:35:01.443Z,16.82
2023-05-15T11:40:01.730Z,16.82
2023-05-15T11:45:02.485Z,16.85
2023-05-15T11:50:01.482Z,17.11
2023-05-15T11:55:00.962Z,17.65
2023-05-15T12:00:00.704Z,18.17
2023-05-15T12:05:00.998Z,18.17
2023-05-15T12:10:02.849Z,18.17
2023-05-15T12:15:00.724Z,17.65
2023-05-15T12:20:01.073Z,17.65
2023-05-15T12:25:02.746Z,17.65
2023-05-15T12:30:00.709Z,17.65
2023-05-15T12:35:01.391Z,17.65
2023-05-15T12:40:00.979Z,17.6
2023-05-15T12:45:03.363Z,17.6
2023-05-15T12:50:00.736Z,17.6
2023-05-15T12:55:01.650Z,18.2
2023-05-15T13:00:00.694Z,18.78
2023-05-15T13:05:01.227Z,18.26
2023-05-15T13:10:00.752Z,18.76
2023-05-15T13:15:01.205Z,18.69
2023-05-15T13:20:00.936Z,18.19
2023-05-15T13:25:00.728Z,18.14
2023-05-15T13:30:00.943Z,18.14
2023-05-15T13:35:00.740Z,17.72
2023-05-15T13:40:00.822Z,17.62
2023-05-15T13:45:01.317Z,17.62
2023-05-15T13:50:00.682Z,17.3
2023-05-15T13:55:00.773Z,17.3
2023-05-15T14:00:00.787Z,17.3
2023-05-15T14:05:00.908Z,17.3
2023-05-15T14:10:00.712Z,17.3
2023-05-15T14:15:02.467Z,17.3
2023-05-15T14:20:00.954Z,17.3
2023-05-15T14:25:02.370Z,17.3
2023-05-15T14:30:03.000Z,17.02
2023-05-15T14:35:00.757Z,17.82
2023-05-15T14:40:00.842Z,18.86
2023-05-15T14:45:02.105Z,18.86
2023-05-15T14:50:02.359Z,19.37
2023-05-15T14:55:09.414Z,19.37
2023-05-15T15:00:00.953Z,18.85
2023-05-15T15:05:01.831Z,18.3
2023-05-15T15:10:01.278Z,18.3
2023-05-15T15:15:00.765Z,18.82
2023-05-15T15:20:00.812Z,18.82
2023-05-15T15:25:01.294Z,18.83
2023-05-15T15:30:01.152Z,18.83
2023-05-15T15:35:02.596Z,19.33
2023-05-15T15:40:00.714Z,19.33
2023-05-15T15:45:01.425Z,19.33
2023-05-15T15:50:01.377Z,19.33
2023-05-15T15:55:01.104Z,19.33
2023-05-15T16:00:00.787Z,19.33
2023-05-15T16:05:00.793Z,19.33
2023-05-15T16:10:11.941Z,19.33
2023-05-15T16:15:13.390Z,19.46
2023-05-15T16:20:01.396Z,19.46
2023-05-15T16:25:01.417Z,19.23
2023-05-15T16:30:01.048Z,19.23
2023-05-15T16:35:01.506Z,19.23
2023-05-15T16:40:02.526Z,18.95
2023-05-15T16:45:02.906Z,18.41
2023-05-15T16:50:01.504Z,18.41
2023-05-15T16:55:00.734Z,18.41
2023-05-15T17:00:01.509Z,18.4
2023-05-15T17:05:01.247Z,18.4
2023-05-15T17:10:02.303Z,18.4
2023-05-15T17:15:00.720Z,18.27
2023-05-15T17:20:03.273Z,18.24
2023-05-15T17:25:01.321Z,18.19
2023-05-15T17:30:00.878Z,18.19
2023-05-15T17:35:00.781Z,18.19
2023-05-15T17:40:00.855Z,18.19
2023-05-15T17:45:00.683Z,17.75
2023-05-15T17:50:00.891Z,17.75
2023-05-15T17:55:03.040Z,17.75
2023-05-15T18:00:00.803Z,17.65
2023-05-15T18:05:01.579Z,17.65
2023-05-15T18:10:02.329Z,17.65
2023-05-15T18:15:00.760Z,17.24
2023-05-15T18:20:00.874Z,17.17
2023-05-15T18:25:00.773Z,17.02
2023-05-15T18:30:00.956Z,17.02
2023-05-15T18:35:00.930Z,17.02
2023-05-15T18:40:00.852Z,16.76
2023-05-15T18:45:00.820Z,16.76
2023-05-15T18:50:01.091Z,16.76
2023-05-15T18:55:00.700Z,16.76
2023-05-15T19:00:00.844Z,16.76
2023-05-15T19:05:00.786Z,16.76
2023-05-15T19:10:00.869Z,16.76
2023-05-15T19:15:00.712Z,16.3
2023-05-15T19:20:01.063Z,16.3
2023-05-15T19:25:00.707Z,16.3
2023-05-15T19:30:01.526Z,16.3
2023-05-15T19:35:01.044Z,16.04
2023-05-15T19:40:00.944Z,16.04
2023-05-15T19:45:03.639Z,16.04
2023-05-15T19:50:00.716Z,16.04
2023-05-15T19:55:01.220Z,16.04
2023-05-15T20:00:00.955Z,16.04
2023-05-15T20:05:01.014Z,16.04
2023-05-15T20:10:00.697Z,16.04
2023-05-15T20:15:00.925Z,15.93
2023-05-15T20:20:00.745Z,15.93
2023-05-15T20:25:01.933Z,15.93
2023-05-15T20:30:01.967Z,15.52
2023-05-15T20:35:02.532Z,15.52
2023-05-15T20:40:01.063Z,15.52
2023-05-15T20:45:01.978Z,15.52
2023-05-15T20:50:00.749Z,15.52
2023-05-15T20:55:00.818Z,15.01
2023-05-15T21:00:00.809Z,15.01
2023-05-15T21:05:00.703Z,15.01
2023-05-15T21:10:01.195Z,15
2023-05-15T21:15:01.023Z,15
2023-05-15T21:20:00.834Z,15
2023-05-15T21:25:00.888Z,15
2023-05-15T21:30:00.996Z,15
2023-05-15T21:35:00.671Z,15
2023-05-15T21:40:00.810Z,15
2023-05-15T21:45:01.242Z,15
2023-05-15T21:50:01.409Z,15
2023-05-15T21:55:01.930Z,15
2023-05-15T22:00:00.950Z,14.73
2023-05-15T22:05:00.837Z,14.73
2023-05-15T22:10:00.801Z,14.73
2023-05-15T22:15:01.647Z,14.73
2023-05-15T22:20:03.167Z,14.49
2023-05-15T22:25:00.758Z,14.49
2023-05-15T22:30:01.757Z,14.49
2023-05-15T22:35:02.563Z,14.49
2023-05-15T22:40:01.431Z,14.49
2023-05-15T22:45:03.058Z,14.46
2023-05-15T22:50:00.688Z,14.46
2023-05-15T22:55:01.154Z,14.25
2023-05-15T23:00:00.790Z,14.25
2023-05-15T23:05:00.721Z,14.25
2023-05-15T23:10:01.047Z,14.25
2023-05-15T23:15:00.783Z,13.91
2023-05-15T23:20:00.777Z,13.91
2023-05-15T23:25:00.931Z,13.91
2023-05-15T23:35:00.880Z,13.91
2023-05-15T23:40:03.574Z,13.91
2023-05-15T23:45:00.685Z,13.91
2023-05-15T23:50:01.302Z,13.83
2023-05-15T23:55:00.730Z,13.83
